Elberfeld, IN

10:08 AM CDT on October 01, 2016 (GMT -0500)
Carrington Evansville North | | Change Station

Elev 430 ft 38.09 °N, 87.51 °W | Updated 27 seconds ago

Mostly Cloudy
Mostly Cloudy
63.9 °F
Feels Like 63.9 °F
N
1.0
Wind Variable Wind from WSW

Today
High -- | Low -- °F
--% Chance of Precip.
Yesterday
High -- | Low -- °F
Precip. -- in
Pressure 30.03 in
Visibility 5.0 miles
Clouds Mostly Cloudy 700 ft
Mostly Cloudy 1100 ft
Mostly Cloudy 10000 ft
Dew Point 61 °F
Humidity 91%
Rainfall 0.00 in
Snow Depth Not available.
6:45 AM 6:31 PM
New Moon, 0% visible
METAR KEVV 011454Z 20006KT 5SM BR BKN007 BKN011 BKN100 18/16 A3004 RMK AO2 SLP169 T01780156 50001
Pressure 30.03 in
Visibility 5.0 miles
Clouds Mostly Cloudy 700 ft
Mostly Cloudy 1100 ft
Mostly Cloudy 10000 ft
Dew Point 61 °F
Humidity 91%
Rainfall 0.00 in
Snow Depth Not available.
6:45 AM 6:31 PM
New Moon, 0% visible
METAR KEVV 011454Z 20006KT 5SM BR BKN007 BKN011 BKN100 18/16 A3004 RMK AO2 SLP169 T01780156 50001

10-Day Weather Forecast

Almanac

Astronomy

Oct. 01, 2016 Rise Set
Actual Time
Civil Twilight
Nautical Twilight
Astronomical Twilight
Moon
Length of Visible Light
Length of Day
Tomorrow will be .
, % of the Moon is Illuminated

Today's Extremes

State Highs State Lows

Community

WunderPhotos

Upload Photos

1,942,952 photos uploaded!

WunderBlog® & News

Nearby

Air Quality

  Air Quality AQ Index Pollutant
Not available.

Snow Depth

Station Depth Elevation

Earthquake Activity

City Distance Mag. Time & Date
Minimum magnitude displayed is 2.5.

Coastal Water Temperatures

Place Temperature

Stations

Nearby Weather Stations

Station Location Temp. Windchill Dew Point Humidity Wind Precip. Elev Updated Type
                   

Watches & Warnings

There are currently no watches in effect.